createdAt,value
2018-07-15T18:51:16.304Z,54.10
2018-07-15T18:53:46.340Z,54.60
2018-07-15T18:56:15.873Z,55.10
2018-07-15T18:58:45.376Z,55.50
2018-07-15T19:01:14.961Z,55.40
2018-07-15T19:03:46.858Z,56.10
2018-07-15T19:06:16.409Z,57.10
2018-07-15T19:08:45.992Z,58.80
2018-07-15T19:11:15.622Z,61.00
2018-07-15T19:13:45.620Z,60.30
2018-07-15T19:16:15.461Z,60.70
2018-07-15T19:18:45.007Z,62.00
2018-07-15T19:21:14.569Z,62.80
2018-07-15T19:23:44.147Z,64.70
2018-07-15T19:26:13.729Z,64.40
2018-07-15T19:28:43.328Z,64.70
2018-07-15T19:31:13.072Z,66.70
2018-07-15T19:33:43.120Z,66.50
2018-07-15T19:36:12.712Z,68.10
2018-07-15T19:38:42.245Z,68.30
2018-07-15T19:41:11.854Z,67.80
2018-07-15T19:43:41.485Z,66.60
2018-07-15T19:46:11.110Z,65.70
2018-07-15T19:53:10.901Z,66.40
2018-07-15T19:55:41.086Z,67.90
2018-07-15T19:58:10.689Z,69.30
2018-07-15T20:00:40.226Z,70.20
2018-07-15T20:03:10.005Z,71.90
2018-07-15T20:08:08.749Z,73.90
2018-07-15T20:10:38.345Z,74.90
2018-07-15T20:13:08.277Z,74.90
2018-07-15T20:15:37.857Z,75.60
2018-07-15T20:18:07.511Z,76.60
2018-07-15T20:20:37.181Z,77.40
2018-07-15T20:23:06.864Z,78.30
2018-07-15T20:25:36.645Z,76.10
2018-07-15T20:28:06.320Z,76.70
2018-07-15T20:30:35.912Z,76.30
2018-07-15T20:33:05.675Z,76.20
2018-07-15T20:35:35.281Z,76.20
2018-07-15T20:38:04.901Z,75.90
2018-07-15T20:40:35.202Z,75.60
2018-07-15T20:43:07.522Z,75.00
2018-07-15T20:45:37.677Z,75.00
2018-07-15T20:48:07.925Z,74.70
2018-07-15T20:50:38.121Z,74.50
2018-07-15T20:53:08.478Z,74.30
2018-07-15T20:55:39.305Z,74.30
2018-07-15T20:58:09.494Z,75.20
2018-07-15T21:03:09.474Z,76.70
2018-07-15T21:05:39.672Z,75.30
2018-07-15T21:08:09.921Z,76.00
2018-07-15T21:10:40.240Z,75.70
2018-07-15T21:13:10.612Z,76.30
2018-07-15T21:15:40.821Z,75.10
2018-07-15T21:18:11.046Z,74.20
2018-07-15T21:20:41.481Z,73.20
2018-07-15T21:23:11.661Z,73.40
2018-07-15T21:25:41.995Z,73.50
2018-07-15T21:28:12.221Z,73.00
2018-07-15T21:30:42.502Z,73.50
2018-07-15T21:33:12.741Z,73.40
2018-07-15T21:35:43.175Z,74.20
2018-07-15T21:38:13.371Z,74.90
2018-07-15T21:40:43.613Z,75.00
2018-07-15T21:43:13.986Z,76.30
2018-07-15T21:45:44.249Z,76.20
2018-07-15T21:48:14.477Z,75.60
2018-07-15T21:50:44.862Z,76.30
2018-07-15T21:53:15.045Z,76.00
2018-07-15T21:55:45.421Z,76.00
2018-07-15T21:58:15.657Z,76.10
2018-07-15T22:00:45.788Z,76.60
2018-07-15T22:03:15.940Z,76.00
2018-07-15T22:05:46.364Z,74.50
2018-07-15T22:08:27.205Z,74.30
2018-07-15T22:10:57.528Z,73.50
2018-07-15T22:13:27.760Z,74.40
2018-07-15T22:15:57.989Z,72.70
2018-07-15T22:18:28.183Z,72.70
2018-07-15T22:20:58.309Z,73.00
2018-07-15T22:23:29.561Z,71.90
2018-07-15T22:25:59.769Z,72.80
2018-07-15T22:28:30.029Z,71.20
2018-07-15T22:31:00.338Z,71.60
2018-07-15T22:33:30.633Z,70.70
2018-07-15T22:36:00.995Z,70.60
2018-07-15T22:38:31.178Z,70.20
2018-07-15T22:41:01.316Z,70.20
2018-07-15T22:43:31.456Z,69.80
2018-07-15T22:46:01.605Z,69.10
2018-07-15T22:48:31.820Z,69.10
2018-07-15T22:51:02.231Z,71.20
2018-07-15T22:53:32.380Z,71.50
2018-07-15T22:56:02.517Z,70.90
2018-07-15T22:58:32.693Z,70.50
2018-07-15T23:01:21.312Z,70.10
2018-07-15T23:03:52.614Z,70.10
2018-07-15T23:06:22.980Z,69.80
2018-07-15T23:08:53.539Z,69.80
2018-07-15T23:11:24.022Z,70.50
2018-07-15T23:13:54.264Z,69.60
2018-07-15T23:16:24.456Z,70.70
2018-07-15T23:18:55.933Z,70.30
2018-07-15T23:21:26.136Z,70.40
2018-07-15T23:23:56.366Z,69.90
2018-07-15T23:26:26.533Z,70.00
2018-07-15T23:28:56.736Z,70.20
2018-07-15T23:31:26.898Z,69.50
2018-07-15T23:33:57.300Z,69.30
2018-07-15T23:36:27.513Z,68.90
2018-07-15T23:38:57.725Z,69.40
2018-07-15T23:41:27.888Z,69.00
2018-07-15T23:43:58.108Z,68.70
2018-07-15T23:46:28.237Z,69.00
2018-07-15T23:48:58.429Z,69.00
2018-07-15T23:51:28.720Z,69.20
2018-07-15T23:53:58.924Z,69.90
2018-07-15T23:56:29.633Z,70.10
